createdAt,value
2018-08-09T00:10:32.240Z,18.54
2018-08-09T00:21:33.021Z,18.35
2018-08-09T00:32:35.154Z,18.06
2018-08-09T00:43:36.733Z,18.06
2018-08-09T00:54:39.170Z,17.96
2018-08-09T01:05:40.900Z,17.76
2018-08-09T01:16:43.201Z,17.67
2018-08-09T01:27:43.979Z,17.47
2018-08-09T01:38:46.120Z,17.37
2018-08-09T01:49:48.279Z,17.37
2018-08-09T02:00:50.669Z,17.37
2018-08-09T02:11:50.397Z,17.08
2018-08-09T02:22:51.449Z,16.98
2018-08-09T02:33:53.367Z,16.98
2018-08-09T02:44:49.807Z,16.98
2018-08-09T02:55:48.089Z,16.88
2018-08-09T03:06:49.735Z,16.79
2018-08-09T03:17:51.103Z,16.69
2018-08-09T03:28:52.352Z,16.69
2018-08-09T03:39:53.446Z,16.59
2018-08-09T03:50:55.448Z,16.59
2018-08-09T04:01:57.324Z,16.69
2018-08-09T04:12:59.678Z,16.69
2018-08-09T04:24:02.608Z,16.69
2018-08-09T04:35:03.847Z,16.79
2018-08-09T04:46:06.629Z,16.88
2018-08-09T04:57:05.707Z,17.08
2018-08-09T05:08:08.824Z,17.37
2018-08-09T05:19:11.414Z,17.76
2018-08-09T05:30:14.380Z,18.06
2018-08-09T05:41:17.105Z,18.45
2018-08-09T05:52:20.463Z,19.04
2018-08-09T06:03:21.850Z,19.33
2018-08-09T06:14:25.575Z,20.01
2018-08-09T06:25:24.772Z,20.40
2018-08-09T06:36:27.789Z,20.99
2018-08-09T06:47:27.092Z,21.19
2018-08-09T06:58:29.938Z,21.48
2018-08-09T07:09:29.011Z,22.16
2018-08-09T07:20:27.106Z,22.56
2018-08-09T07:31:27.113Z,22.85
2018-08-09T07:42:28.983Z,23.14
2018-08-09T07:53:24.871Z,23.44
2018-08-09T08:04:27.235Z,23.83
2018-08-09T08:15:29.934Z,24.22
2018-08-09T08:26:30.391Z,24.61
2018-08-09T08:37:32.859Z,25.00
2018-08-09T08:48:34.736Z,25.19
2018-08-09T08:59:36.128Z,25.49
2018-08-09T09:10:38.713Z,25.78
2018-08-09T09:21:41.409Z,26.37
2018-08-09T09:32:43.597Z,26.76
2018-08-09T09:43:46.152Z,26.86
2018-08-09T09:54:48.736Z,27.54
2018-08-09T10:05:51.059Z,27.83
2018-08-09T10:16:52.788Z,28.23
2018-08-09T10:27:52.846Z,28.42
2018-08-09T10:38:55.848Z,29.01
2018-08-09T10:49:58.624Z,29.20
2018-08-09T11:00:49.485Z,29.20
2018-08-09T11:11:52.351Z,29.89
2018-08-09T11:22:55.091Z,30.28
2018-08-09T11:33:55.574Z,30.67
2018-08-09T11:44:58.733Z,32.82
2018-08-09T11:56:00.622Z,33.12
2018-08-09T12:07:02.410Z,33.70
2018-08-09T12:18:03.648Z,34.49
2018-08-09T12:29:02.556Z,33.21
2018-08-09T12:40:04.925Z,33.41
2018-08-09T12:51:07.998Z,34.29
2018-08-09T13:02:10.367Z,35.37
2018-08-09T13:12:52.552Z,36.05
2018-08-09T13:23:36.521Z,35.85
2018-08-09T13:34:39.412Z,35.76
2018-08-09T13:45:40.002Z,34.78
2018-08-09T13:56:38.537Z,34.88
2018-08-09T14:07:22.224Z,36.05
2018-08-09T14:18:24.124Z,34.58
2018-08-09T14:29:27.027Z,34.78
2018-08-09T14:40:13.763Z,36.15
2018-08-09T14:50:58.476Z,35.17
2018-08-09T15:02:02.954Z,35.27
2018-08-09T15:13:07.267Z,35.56
2018-08-09T15:23:48.557Z,34.39
2018-08-09T15:34:52.206Z,34.58
2018-08-09T15:45:42.349Z,31.84
2018-08-09T15:56:39.968Z,31.55
2018-08-09T16:07:40.370Z,31.06
2018-08-09T16:18:40.737Z,30.38
2018-08-09T16:29:39.602Z,29.99
2018-08-09T16:40:40.274Z,29.60
2018-08-09T16:51:35.124Z,29.30
2018-08-09T17:02:37.365Z,29.01
2018-08-09T17:13:38.685Z,28.52
2018-08-09T17:24:38.094Z,28.23
2018-08-09T17:35:39.160Z,27.93
2018-08-09T17:46:39.612Z,27.64
2018-08-09T17:57:40.613Z,27.25
2018-08-09T18:08:42.008Z,26.56
2018-08-09T18:19:43.074Z,26.08
2018-08-09T18:30:43.632Z,25.39
2018-08-09T18:41:44.052Z,24.90
2018-08-09T18:52:45.693Z,24.71
2018-08-09T19:03:46.451Z,24.22
2018-08-09T19:14:48.072Z,24.02
2018-08-09T19:25:49.296Z,23.93
2018-08-09T19:36:51.582Z,23.63
2018-08-09T19:47:51.547Z,23.44
2018-08-09T19:58:52.789Z,23.24
2018-08-09T20:09:52.287Z,23.14
2018-08-09T20:20:52.315Z,22.95
2018-08-09T20:31:51.059Z,22.75
2018-08-09T20:42:52.154Z,22.65
2018-08-09T20:53:51.766Z,22.56
2018-08-09T21:04:51.967Z,22.46
2018-08-09T21:15:52.854Z,22.36
2018-08-09T21:26:54.003Z,22.07
2018-08-09T21:37:52.310Z,21.87
2018-08-09T21:48:47.549Z,21.68
2018-08-09T21:59:46.203Z,21.48
2018-08-09T22:10:44.643Z,21.38
2018-08-09T22:21:39.379Z,21.28
2018-08-09T22:32:37.836Z,21.09
2018-08-09T22:43:38.275Z,20.79
2018-08-09T22:54:39.751Z,20.70
2018-08-09T23:05:40.625Z,20.60
2018-08-09T23:16:42.985Z,20.50
2018-08-09T23:27:43.662Z,20.40
2018-08-09T23:38:45.335Z,20.40
2018-08-09T23:49:46.699Z,20.21
